Time;durP1;ratioP1;P1;durP2;ratioP2;P2;SDS_P1;SDS_P2;PMS_P1;PMS_P2;Temp;Humidity;BMP_temperature;BMP_pressure;BME280_temperature;BME280_humidity;BME280_pressure;Samples;Min_cycle;Max_cycle;Signal;HPM_P1;HPM_P2
2023/11/22 00:00:13;;;;;;;38.63;24.93;;;;;;;5.11;100.00;100072.30;1477712;87;21419;-81
2023/11/22 00:02:40;;;;;;;38.43;24.23;;;;;;;5.07;100.00;100074.81;1476325;88;22284;-78
2023/11/22 00:05:07;;;;;;;38.70;24.60;;;;;;;5.04;100.00;100069.81;1465016;88;22002;-78
2023/11/22 00:07:33;;;;;;;40.83;24.10;;;;;;;4.98;100.00;100065.88;1472924;87;22284;-78
2023/11/22 00:10:01;;;;;;;37.57;23.10;;;;;;;4.95;100.00;100076.13;1474580;88;21338;-78
2023/11/22 00:12:27;;;;;;;42.50;26.10;;;;;;;4.97;100.00;100086.48;1473819;88;22483;-78
2023/11/22 00:14:54;;;;;;;39.83;23.87;;;;;;;4.97;100.00;100087.31;1475106;87;21471;-78
2023/11/22 00:17:21;;;;;;;35.87;22.60;;;;;;;5.01;100.00;100094.97;1478211;87;21508;-79
2023/11/22 00:19:48;;;;;;;36.20;23.83;;;;;;;5.02;100.00;100090.07;1470342;87;21441;-81
2023/11/22 00:22:14;;;;;;;40.57;22.60;;;;;;;5.05;100.00;100095.08;1478613;88;21441;-82
2023/11/22 00:24:41;;;;;;;37.03;24.63;;;;;;;5.06;100.00;100101.50;1479878;88;21360;-80
2023/11/22 00:27:10;;;;;;;36.97;23.40;;;;;;;5.09;100.00;100107.84;1473029;88;21367;-80
2023/11/22 00:29:36;;;;;;;36.07;22.70;;;;;;;5.14;100.00;100110.09;1471621;88;21412;-79
2023/11/22 00:32:02;;;;;;;35.77;22.23;;;;;;;5.16;100.00;100105.56;1463526;88;22394;-80
2023/11/22 00:34:29;;;;;;;40.63;23.57;;;;;;;5.14;100.00;100103.53;1466702;87;21529;-80
2023/11/22 00:36:55;;;;;;;38.73;23.47;;;;;;;5.11;100.00;100097.22;1477590;87;22166;-80
2023/11/22 00:39:22;;;;;;;35.80;23.53;;;;;;;5.06;100.00;100096.25;1474490;87;21404;-80
2023/11/22 00:41:48;;;;;;;32.00;21.30;;;;;;;5.02;100.00;100092.70;1474438;87;21441;-80
2023/11/22 00:44:14;;;;;;;34.00;22.10;;;;;;;5.01;100.00;100095.80;1476292;88;21530;-80
2023/11/22 00:46:42;;;;;;;33.97;22.60;;;;;;;4.97;100.00;100095.67;1468857;87;22240;-79
2023/11/22 00:49:11;;;;;;;31.90;20.07;;;;;;;4.94;100.00;100090.18;1472047;88;21456;-80
2023/11/22 00:51:40;;;;;;;36.80;22.93;;;;;;;4.91;100.00;100093.53;1474578;87;21382;-80
2023/11/22 00:54:07;;;;;;;31.03;19.67;;;;;;;4.92;100.00;100095.19;1475096;88;21375;-80
2023/11/22 00:56:33;;;;;;;31.47;20.90;;;;;;;4.91;100.00;100096.98;1475279;87;21390;-80
2023/11/22 00:58:59;;;;;;;31.63;19.83;;;;;;;4.88;100.00;100094.59;1471612;88;21443;-81
2023/11/22 01:01:26;;;;;;;29.97;19.97;;;;;;;4.84;100.00;100097.11;1474049;88;22181;-79
2023/11/22 01:03:52;;;;;;;29.90;19.43;;;;;;;4.82;100.00;100101.63;1478962;87;21869;-80
2023/11/22 01:06:18;;;;;;;30.70;18.67;;;;;;;4.75;100.00;100105.70;1469728;87;21368;-79
2023/11/22 01:08:45;;;;;;;32.13;20.13;;;;;;;4.68;100.00;100107.93;1482189;87;21353;-79
2023/11/22 01:11:11;;;;;;;30.70;20.20;;;;;;;4.60;100.00;100109.47;1473884;88;21508;-80
2023/11/22 01:13:40;;;;;;;28.73;19.23;;;;;;;4.56;100.00;100106.73;1480614;87;22328;-80
2023/11/22 01:16:06;;;;;;;29.87;19.70;;;;;;;4.55;100.00;100109.84;1475647;87;21397;-81
2023/11/22 01:18:32;;;;;;;30.13;18.03;;;;;;;4.58;100.00;100115.33;1482758;87;21442;-80
2023/11/22 01:20:58;;;;;;;24.53;17.93;;;;;;;4.60;100.00;100112.92;1485239;88;21285;-81
2023/11/22 01:23:25;;;;;;;28.00;18.93;;;;;;;4.65;100.00;100115.20;1482161;88;21500;-81
2023/11/22 01:25:51;;;;;;;28.60;17.53;;;;;;;4.66;100.00;100116.41;1483127;87;21479;-77
2023/11/22 01:28:17;;;;;;;32.00;19.07;;;;;;;4.68;100.00;100112.34;1476810;88;21434;-76
2023/11/22 01:30:46;;;;;;;27.17;17.03;;;;;;;4.73;100.00;100111.52;1486184;87;21596;-77
2023/11/22 01:33:13;;;;;;;33.30;20.17;;;;;;;4.75;100.00;100108.31;1479740;87;21448;-77
2023/11/22 01:35:39;;;;;;;29.37;19.67;;;;;;;4.74;100.00;100109.25;1483329;87;21441;-79
2023/11/22 01:38:05;;;;;;;33.03;19.20;;;;;;;4.73;100.00;100104.97;1482165;87;21561;-79
2023/11/22 01:40:32;;;;;;;29.73;18.73;;;;;;;4.71;100.00;100106.38;1476748;88;22957;-79
2023/11/22 01:43:02;;;;;;;29.17;19.17;;;;;;;4.62;100.00;100099.71;1485324;87;21404;-79
2023/11/22 01:45:28;;;;;;;34.37;20.27;;;;;;;4.56;100.00;100108.05;1488183;87;21315;-79
2023/11/22 01:47:55;;;;;;;28.03;17.40;;;;;;;4.55;100.00;100107.70;1481046;87;21927;-80
2023/11/22 01:50:22;;;;;;;35.33;20.00;;;;;;;4.63;100.00;100101.37;1477383;88;21337;-79
2023/11/22 01:52:49;;;;;;;28.50;18.70;;;;;;;4.65;100.00;100102.09;1493508;87;21522;-80
2023/11/22 01:55:15;;;;;;;32.60;20.60;;;;;;;4.63;100.00;100102.23;1481965;87;21301;-80
2023/11/22 01:57:42;;;;;;;28.53;18.57;;;;;;;4.66;100.00;100102.44;1481935;87;21411;-80
2023/11/22 02:00:14;;;;;;;27.17;17.50;;;;;;;4.68;100.00;100095.30;1481713;87;21382;-80
2023/11/22 02:02:37;;;;;;;29.10;18.47;;;;;;;4.71;100.00;100091.96;1487444;87;21507;-79
2023/11/22 02:05:04;;;;;;;31.33;19.00;;;;;;;4.75;100.00;100096.52;1489717;87;21632;-80
2023/11/22 02:07:31;;;;;;;32.47;19.23;;;;;;;4.78;100.00;100093.66;1470093;88;21484;-80
2023/11/22 02:09:58;;;;;;;37.23;20.70;;;;;;;4.78;100.00;100097.59;1438613;91;21393;-79
2023/11/22 02:12:24;;;;;;;32.97;20.60;;;;;;;4.82;100.00;100107.36;1451915;90;21309;-78
2023/11/22 02:14:50;;;;;;;34.17;22.33;;;;;;;4.83;100.00;100109.84;1439355;91;21547;-79
2023/11/22 02:17:17;;;;;;;32.10;19.67;;;;;;;4.83;100.00;100108.53;1444379;90;21288;-79
2023/11/22 02:19:43;;;;;;;29.87;20.67;;;;;;;4.81;100.00;100110.46;1437078;91;22330;-79
2023/11/22 02:22:10;;;;;;;33.50;20.00;;;;;;;4.77;100.00;100110.80;1484276;87;22313;-80
2023/11/22 02:24:37;;;;;;;30.53;18.93;;;;;;;4.76;100.00;100108.66;1481004;88;21368;-80
2023/11/22 02:27:03;;;;;;;30.40;20.10;;;;;;;4.76;100.00;100112.59;1485785;88;21603;-79
2023/11/22 02:29:30;;;;;;;26.07;17.70;;;;;;;4.77;100.00;100115.56;1477359;88;21552;-80
2023/11/22 02:31:56;;;;;;;33.10;19.97;;;;;;;4.76;100.00;100119.15;1463143;88;21811;-80
2023/11/22 02:34:22;;;;;;;27.67;17.10;;;;;;;4.78;100.00;100122.98;1476270;87;21464;-80
2023/11/22 02:36:48;;;;;;;31.90;19.37;;;;;;;4.79;100.00;100124.16;1480069;87;21419;-79
2023/11/22 02:39:16;;;;;;;31.47;20.13;;;;;;;4.80;100.00;100120.57;1480931;88;22313;-80
2023/11/22 02:41:42;;;;;;;27.13;17.47;;;;;;;4.82;100.00;100125.71;1481512;88;21449;-80
2023/11/22 02:44:08;;;;;;;27.77;18.37;;;;;;;4.84;100.00;100125.95;1477577;87;22218;-79
2023/11/22 02:46:35;;;;;;;32.13;18.80;;;;;;;4.85;100.00;100129.41;1478971;87;21374;-80
2023/11/22 02:49:01;;;;;;;36.23;20.47;;;;;;;4.88;100.00;100124.75;1474954;88;21523;-80
2023/11/22 02:51:27;;;;;;;28.47;18.03;;;;;;;4.89;100.00;100130.38;1482356;87;22284;-79
2023/11/22 02:53:54;;;;;;;31.17;19.63;;;;;;;4.93;100.00;100137.52;1454516;88;22490;-79
2023/11/22 02:56:21;;;;;;;29.53;18.60;;;;;;;4.97;100.00;100133.22;1479229;88;21633;-80
2023/11/22 02:58:47;;;;;;;29.83;18.80;;;;;;;5.01;100.00;100126.45;1473128;88;22269;-79
2023/11/22 03:01:13;;;;;;;31.83;17.60;;;;;;;5.03;100.00;100127.14;1485944;88;21360;-77
2023/11/22 03:03:39;;;;;;;30.10;19.60;;;;;;;5.05;100.00;100132.63;1485457;87;21374;-77
2023/11/22 03:06:06;;;;;;;29.40;18.33;;;;;;;5.10;100.00;100134.91;1480191;87;22299;-77
2023/11/22 03:08:33;;;;;;;30.13;18.17;;;;;;;5.12;100.00;100131.22;1480718;88;21508;-77
2023/11/22 03:10:59;;;;;;;28.77;18.43;;;;;;;5.16;100.00;100140.50;1482822;88;21301;-77
2023/11/22 03:15:57;;;;;;;30.40;19.53;;;;;;;5.20;100.00;100142.40;1503299;85;25516;-76
2023/11/22 03:18:23;;;;;;;31.90;17.73;;;;;;;5.18;100.00;100140.39;1484475;87;21426;-76
2023/11/22 03:20:53;;;;;;;35.07;20.00;;;;;;;5.14;100.00;100141.57;1485006;88;21553;-75
2023/11/22 03:23:17;;;;;;;34.33;19.17;;;;;;;5.15;100.00;100149.79;1449793;88;21596;-76
2023/11/22 03:25:43;;;;;;;39.03;19.23;;;;;;;5.12;100.00;100147.41;1480747;87;22283;-76
2023/11/22 03:28:09;;;;;;;27.87;17.20;;;;;;;5.04;100.00;100154.58;1458892;88;21372;-76
2023/11/22 03:30:36;;;;;;;33.23;20.57;;;;;;;5.07;100.00;100158.76;1475954;88;21396;-78
2023/11/22 03:33:02;;;;;;;39.33;24.43;;;;;;;5.03;100.00;100161.24;1477470;87;22239;-78
2023/11/22 03:35:29;;;;;;;26.70;16.90;;;;;;;5.06;100.00;100171.49;1461117;88;21366;-78
2023/11/22 03:37:55;;;;;;;30.00;19.00;;;;;;;5.02;100.00;100175.32;1470235;88;21514;-78
2023/11/22 03:40:21;;;;;;;30.53;20.23;;;;;;;5.02;100.00;100175.32;1474331;88;21672;-78
2023/11/22 03:42:47;;;;;;;28.17;18.57;;;;;;;5.02;100.00;100180.56;1479571;87;21485;-78
2023/11/22 03:45:14;;;;;;;26.80;18.07;;;;;;;5.00;100.00;100179.36;1443915;88;21484;-78
2023/11/22 03:47:40;;;;;;;27.33;18.83;;;;;;;5.04;100.00;100191.78;1466519;87;22355;-78
2023/11/22 03:50:08;;;;;;;31.73;17.80;;;;;;;5.00;100.00;100195.58;1469950;88;21512;-79
2023/11/22 03:52:34;;;;;;;31.40;16.23;;;;;;;5.00;100.00;100204.27;1474980;88;22327;-76
2023/11/22 03:55:00;;;;;;;31.93;18.77;;;;;;;5.01;100.00;100205.97;1478406;87;21481;-77
2023/11/22 03:57:26;;;;;;;29.30;18.80;;;;;;;5.04;100.00;100216.22;1488319;87;21396;-78
2023/11/22 03:59:52;;;;;;;27.00;16.40;;;;;;;5.02;100.00;100210.73;1457760;88;21373;-76
2023/11/22 04:02:18;;;;;;;27.90;17.27;;;;;;;4.96;100.00;100213.34;1469134;88;21357;-77
2023/11/22 04:04:45;;;;;;;27.17;17.03;;;;;;;4.91;100.00;100213.68;1490200;87;21515;-77
2023/11/22 04:07:11;;;;;;;29.37;17.20;;;;;;;4.90;100.00;100220.37;1462769;88;21322;-77
2023/11/22 04:09:37;;;;;;;23.87;15.60;;;;;;;4.84;100.00;100225.60;1471540;88;21389;-78
2023/11/22 04:12:05;;;;;;;24.57;15.73;;;;;;;4.80;100.00;100237.25;1479663;87;21561;-77
2023/11/22 04:14:31;;;;;;;24.10;15.47;;;;;;;4.82;100.00;100239.30;1472739;87;21607;-77
2023/11/22 04:16:57;;;;;;;23.97;16.63;;;;;;;4.78;100.00;100247.52;1456257;89;21466;-77
2023/11/22 04:19:23;;;;;;;22.33;14.27;;;;;;;4.81;100.00;100255.16;1458666;88;21419;-79
2023/11/22 04:21:49;;;;;;;21.87;14.40;;;;;;;4.83;100.00;100255.38;1449613;88;22477;-79
2023/11/22 04:24:17;;;;;;;21.47;14.53;;;;;;;4.85;100.00;100258.73;1465778;88;21382;-79
2023/11/22 04:26:44;;;;;;;23.70;16.00;;;;;;;4.86;100.00;100263.48;1461127;88;22422;-79
2023/11/22 04:29:10;;;;;;;18.13;12.47;;;;;;;4.85;100.00;100256.10;1464626;88;21375;-79
2023/11/22 04:31:36;;;;;;;13.47;9.60;;;;;;;4.89;100.00;100265.44;1460339;88;21389;-77
2023/11/22 04:34:02;;;;;;;13.97;9.27;;;;;;;4.89;100.00;100258.02;1462294;88;22506;-78
2023/11/22 04:36:29;;;;;;;17.10;10.07;;;;;;;4.89;100.00;100270.67;1465561;88;21390;-78
2023/11/22 04:38:55;;;;;;;9.43;5.87;;;;;;;4.90;100.00;100267.58;1470238;88;22249;-81
2023/11/22 04:41:22;;;;;;;7.53;5.77;;;;;;;4.84;100.00;100271.48;1459183;88;21545;-79
2023/11/22 04:43:49;;;;;;;8.40;6.40;;;;;;;4.75;100.00;100276.11;1469041;88;22285;-79
2023/11/22 04:46:15;;;;;;;8.13;6.27;;;;;;;4.73;100.00;100278.00;1451031;88;21430;-78
2023/11/22 04:48:44;;;;;;;7.57;4.70;;;;;;;4.63;100.00;100279.62;1448329;88;21464;-80
2023/11/22 04:51:09;;;;;;;6.70;4.53;;;;;;;4.51;100.00;100273.50;1415883;92;21589;-78
2023/11/22 04:53:36;;;;;;;7.63;5.33;;;;;;;4.48;100.00;100286.34;1450414;88;22364;-78
2023/11/22 04:56:05;;;;;;;17.60;4.90;;;;;;;4.40;100.00;100292.64;1472572;88;21383;-79
2023/11/22 04:58:31;;;;;;;7.80;4.70;;;;;;;4.29;100.00;100293.89;1430813;91;21598;-79
2023/11/22 05:00:58;;;;;;;5.67;4.33;;;;;;;4.21;100.00;100300.16;1466740;88;21609;-80
2023/11/22 05:03:24;;;;;;;11.77;5.33;;;;;;;4.16;100.00;100302.26;1463102;88;22322;-80
2023/11/22 05:05:50;;;;;;;8.87;5.70;;;;;;;4.10;100.00;100300.08;1449519;88;21501;-80
2023/11/22 05:08:16;;;;;;;6.07;3.80;;;;;;;4.02;100.00;100311.91;1466726;88;21516;-79
2023/11/22 05:10:42;;;;;;;6.93;4.30;;;;;;;3.86;100.00;100319.20;1446865;88;21463;-79
2023/11/22 05:13:08;;;;;;;8.53;5.23;;;;;;;3.85;100.00;100330.59;1483114;88;22314;-80
2023/11/22 05:15:34;;;;;;;18.07;9.87;;;;;;;3.78;100.00;100332.81;1457818;88;21492;-80
2023/11/22 05:18:01;;;;;;;7.60;4.57;;;;;;;3.79;100.00;100337.57;1485419;88;22409;-82
2023/11/22 05:20:28;;;;;;;6.00;4.03;;;;;;;3.72;100.00;100340.27;1465226;88;22299;-80
2023/11/22 05:22:54;;;;;;;9.77;5.37;;;;;;;3.61;100.00;100349.67;1464628;88;21389;-75
2023/11/22 05:25:20;;;;;;;7.53;4.90;;;;;;;3.67;100.00;100359.36;1478135;88;21625;-77
2023/11/22 05:27:46;;;;;;;5.30;3.70;;;;;;;3.63;100.00;100367.07;1485371;88;21418;-77
2023/11/22 05:30:15;;;;;;;5.47;3.73;;;;;;;3.45;100.00;100372.58;1471269;88;21442;-77
2023/11/22 05:32:41;;;;;;;7.07;4.63;;;;;;;3.50;100.00;100374.42;1478402;88;21484;-77
2023/11/22 05:35:09;;;;;;;5.60;4.30;;;;;;;3.44;100.00;100381.38;1477305;88;23019;-76
2023/11/22 05:37:37;;;;;;;7.77;4.60;;;;;;;3.69;100.00;100388.90;1478521;88;21470;-77
2023/11/22 05:40:05;;;;;;;7.83;4.50;;;;;;;3.81;100.00;100387.58;1479606;88;21698;-78
2023/11/22 05:42:32;;;;;;;8.23;4.27;;;;;;;3.86;100.00;100383.34;1476294;88;21670;-77
2023/11/22 05:44:58;;;;;;;6.77;4.00;;;;;;;3.70;100.00;100386.64;1484701;88;22321;-77
2023/11/22 05:47:24;;;;;;;8.40;5.00;;;;;;;3.54;100.00;100383.77;1485435;88;21478;-77
2023/11/22 05:49:50;;;;;;;6.60;4.53;;;;;;;3.50;100.00;100390.13;1491539;88;21470;-76
2023/11/22 05:52:16;;;;;;;9.17;3.67;;;;;;;3.33;100.00;100391.72;1484064;88;21659;-78
2023/11/22 05:54:42;;;;;;;7.10;3.70;;;;;;;3.28;100.00;100393.80;1476921;88;21448;-78
2023/11/22 05:57:09;;;;;;;7.40;4.67;;;;;;;3.27;100.00;100395.58;1478951;88;21463;-78
2023/11/22 05:59:37;;;;;;;5.27;3.50;;;;;;;3.21;100.00;100400.39;1480096;88;21570;-78
2023/11/22 06:02:03;;;;;;;5.60;3.10;;;;;;;3.06;100.00;100410.08;1481010;88;21596;-75
2023/11/22 06:04:30;;;;;;;5.53;3.60;;;;;;;3.00;100.00;100420.47;1476514;88;21485;-76
2023/11/22 06:06:57;;;;;;;6.37;3.17;;;;;;;2.94;100.00;100420.88;1485279;88;21492;-77
2023/11/22 06:09:23;;;;;;;5.83;3.80;;;;;;;2.99;100.00;100420.08;1484141;88;21463;-77
2023/11/22 06:11:49;;;;;;;9.30;4.10;;;;;;;2.91;100.00;100424.99;1480612;88;21411;-76
2023/11/22 06:14:15;;;;;;;4.53;2.83;;;;;;;2.94;100.00;100422.18;1484510;88;21625;-77
2023/11/22 06:16:41;;;;;;;4.97;3.03;;;;;;;2.94;100.00;100423.01;1469538;88;22985;-76
2023/11/22 06:19:08;;;;;;;6.47;3.57;;;;;;;2.87;100.00;100425.63;1471661;88;21495;-77
2023/11/22 06:21:35;;;;;;;3.67;2.57;;;;;;;2.88;100.00;100433.03;1473559;88;21627;-77
2023/11/22 06:24:03;;;;;;;7.37;2.80;;;;;;;2.81;100.00;100434.34;1461020;88;21530;-75
2023/11/22 06:26:30;;;;;;;3.10;1.90;;;;;;;2.84;100.00;100438.06;1478999;88;21463;-76
2023/11/22 06:28:56;;;;;;;4.00;1.90;;;;;;;2.76;100.00;100447.69;1468861;88;21727;-76
2023/11/22 06:31:23;;;;;;;2.60;1.63;;;;;;;2.78;100.00;100455.45;1472807;88;22269;-77
2023/11/22 06:33:49;;;;;;;2.13;1.60;;;;;;;2.80;100.00;100460.13;1471157;88;22521;-75
2023/11/22 06:36:15;;;;;;;2.27;1.70;;;;;;;2.78;100.00;100456.76;1471407;88;21464;-78
2023/11/22 06:38:41;;;;;;;3.30;1.97;;;;;;;2.70;100.00;100462.02;1474166;88;21463;-76
2023/11/22 06:41:08;;;;;;;3.50;2.13;;;;;;;2.78;100.00;100467.22;1477029;88;22529;-76
2023/11/22 06:43:34;;;;;;;3.67;2.20;;;;;;;2.80;100.00;100467.97;1476889;88;21470;-77
2023/11/22 06:46:02;;;;;;;4.67;2.47;;;;;;;2.73;100.00;100471.41;1473312;88;21367;-77
2023/11/22 06:48:28;;;;;;;3.50;2.23;;;;;;;2.79;100.00;100480.64;1472905;88;21633;-78
2023/11/22 06:50:54;;;;;;;2.87;1.93;;;;;;;2.76;100.00;100489.52;1469007;88;21545;-77
2023/11/22 06:53:20;;;;;;;3.17;1.77;;;;;;;2.75;100.00;100477.86;1477166;88;22388;-77
2023/11/22 06:55:47;;;;;;;2.63;1.97;;;;;;;2.75;100.00;100481.78;1412539;88;21589;-77
2023/11/22 06:58:13;;;;;;;2.27;1.73;;;;;;;2.76;100.00;100483.45;1390541;88;21427;-79
2023/11/22 07:00:40;;;;;;;4.83;2.13;;;;;;;2.78;100.00;100495.49;1467053;88;21603;-79
2023/11/22 07:03:06;;;;;;;4.17;1.63;;;;;;;2.73;100.00;100484.95;1482210;88;21507;-78
2023/11/22 07:05:32;;;;;;;4.17;2.43;;;;;;;2.89;100.00;100494.83;1468682;88;21441;-77
2023/11/22 07:07:59;;;;;;;8.57;3.53;;;;;;;2.92;100.00;100499.86;1473355;88;21648;-78
2023/11/22 07:10:26;;;;;;;3.97;1.90;;;;;;;2.81;100.00;100514.07;1474700;88;22372;-76
2023/11/22 07:12:52;;;;;;;5.87;2.33;;;;;;;2.76;100.00;100506.97;1474764;88;21593;-76
2023/11/22 07:15:19;;;;;;;3.70;2.30;;;;;;;2.87;100.00;100523.66;1477343;88;21493;-77
2023/11/22 07:17:45;;;;;;;6.60;2.50;;;;;;;2.86;100.00;100529.01;1478153;88;21537;-78
2023/11/22 07:20:16;;;;;;;6.13;2.67;;;;;;;2.77;100.00;100520.44;1478117;88;21477;-78
2023/11/22 07:22:42;;;;;;;4.97;2.53;;;;;;;2.76;100.00;100527.88;1482676;88;22499;-77
2023/11/22 07:25:17;;;;;;;8.30;2.27;;;;;;;2.73;100.00;100524.16;1563571;88;21530;-76
2023/11/22 07:27:37;;;;;;;3.70;2.63;;;;;;;2.79;100.00;100530.30;1558057;88;21405;-78
2023/11/22 07:30:04;;;;;;;4.67;2.97;;;;;;;2.78;100.00;100531.25;1383974;89;21427;-77
2023/11/22 07:32:30;;;;;;;3.97;2.33;;;;;;;2.84;100.00;100529.09;1408814;88;21629;-78
2023/11/22 07:34:56;;;;;;;4.80;2.60;;;;;;;2.81;100.00;100525.83;1482813;88;21404;-77
2023/11/22 07:37:23;;;;;;;4.50;2.80;;;;;;;2.82;100.00;100523.58;1404035;88;21522;-77
2023/11/22 07:39:50;;;;;;;3.87;2.90;;;;;;;2.82;100.00;100535.34;1402783;88;21360;-79
2023/11/22 07:42:18;;;;;;;7.43;3.30;;;;;;;2.85;100.00;100542.98;1402494;88;21554;-78
2023/11/22 07:44:44;;;;;;;6.50;3.63;;;;;;;2.87;100.00;100547.66;1408632;88;22153;-77
2023/11/22 07:47:10;;;;;;;5.90;2.73;;;;;;;2.78;100.00;100540.40;1565590;88;22151;-76
2023/11/22 07:49:42;;;;;;;7.17;3.90;;;;;;;2.80;100.00;100545.91;1384222;89;21294;-78
2023/11/22 07:52:13;;;;;;;4.87;2.80;;;;;;;2.83;100.00;100547.50;1498216;88;21492;-77
2023/11/22 07:54:36;;;;;;;5.07;3.83;;;;;;;2.87;100.00;100552.89;1481063;88;22395;-78
2023/11/22 07:57:02;;;;;;;6.57;3.27;;;;;;;2.94;100.00;100558.13;1483393;88;21389;-79
2023/11/22 07:59:28;;;;;;;6.23;3.47;;;;;;;2.95;100.00;100562.41;1479433;88;22307;-77
2023/11/22 08:01:55;;;;;;;4.60;2.90;;;;;;;3.09;100.00;100557.63;1479380;88;21441;-78
2023/11/22 08:04:22;;;;;;;7.07;2.93;;;;;;;3.04;100.00;100557.08;1458659;88;21582;-78
2023/11/22 08:06:49;;;;;;;5.00;3.20;;;;;;;3.05;100.00;100562.22;1483945;88;22335;-78
2023/11/22 08:09:16;;;;;;;5.37;3.47;;;;;;;3.02;100.00;100562.86;1476155;88;21462;-77
2023/11/22 08:11:42;;;;;;;6.13;3.93;;;;;;;3.09;100.00;100562.39;1476167;88;21619;-78
2023/11/22 08:14:09;;;;;;;10.03;4.40;;;;;;;3.07;100.00;100560.80;1475732;88;21418;-76
2023/11/22 08:16:38;;;;;;;7.20;4.13;;;;;;;3.13;100.00;100569.09;1478404;88;21479;-76
2023/11/22 08:19:03;;;;;;;4.00;2.83;;;;;;;3.15;100.00;100576.39;1469148;88;21530;-77
2023/11/22 08:21:29;;;;;;;5.80;3.67;;;;;;;3.06;100.00;100570.43;1460189;88;21626;-77
2023/11/22 08:23:56;;;;;;;5.40;4.10;;;;;;;3.22;100.00;100590.38;1459567;88;21441;-76
2023/11/22 08:26:22;;;;;;;6.87;3.47;;;;;;;3.26;100.00;100583.56;1476342;88;21427;-77
2023/11/22 08:28:48;;;;;;;7.13;4.80;;;;;;;3.29;100.00;100577.30;1476761;88;21581;-77
2023/11/22 08:31:16;;;;;;;17.43;7.30;;;;;;;3.36;100.00;100586.42;1462917;88;22402;-77
2023/11/22 08:33:43;;;;;;;6.00;3.73;;;;;;;3.48;100.00;100583.05;1483024;88;21596;-76
2023/11/22 08:36:10;;;;;;;5.37;3.47;;;;;;;3.58;100.00;100590.66;1470169;88;21552;-77
2023/11/22 08:38:40;;;;;;;5.47;3.90;;;;;;;3.60;100.00;100590.58;1471244;88;21670;-76
2023/11/22 08:41:05;;;;;;;5.37;3.40;;;;;;;3.65;100.00;100603.34;1472415;88;21648;-75
2023/11/22 08:43:32;;;;;;;6.47;3.57;;;;;;;3.63;100.00;100600.02;1469093;88;21463;-77
2023/11/22 08:45:59;;;;;;;4.27;3.10;;;;;;;3.66;100.00;100601.12;1475718;88;21493;-79
2023/11/22 08:48:26;;;;;;;5.63;3.77;;;;;;;3.65;100.00;100601.56;1472857;88;22185;-78
2023/11/22 08:50:55;;;;;;;11.63;3.80;;;;;;;3.57;100.00;100611.24;1475646;88;21426;-78
2023/11/22 08:53:22;;;;;;;5.03;3.73;;;;;;;3.59;100.00;100611.13;1475346;88;21471;-77
2023/11/22 08:55:48;;;;;;;4.60;3.70;;;;;;;3.63;100.00;100611.31;1463636;88;21530;-79
2023/11/22 08:58:14;;;;;;;5.13;3.87;;;;;;;3.77;100.00;100620.88;1466262;88;22503;-78
2023/11/22 09:00:42;;;;;;;5.50;3.80;;;;;;;3.56;100.00;100621.31;1479247;88;21501;-77
2023/11/22 09:03:12;;;;;;;7.63;4.17;;;;;;;3.78;100.00;100625.19;1474502;88;21619;-77
2023/11/22 09:05:36;;;;;;;7.40;4.77;;;;;;;3.73;100.00;100622.86;1469743;88;21583;-78
2023/11/22 09:08:04;;;;;;;5.93;4.77;;;;;;;3.87;100.00;100624.59;1472768;88;21655;-79
2023/11/22 09:10:30;;;;;;;7.27;4.13;;;;;;;3.97;100.00;100619.58;1474835;88;21948;-78
2023/11/22 09:12:59;;;;;;;6.93;4.60;;;;;;;4.02;100.00;100617.03;1463229;88;21522;-78
2023/11/22 09:15:26;;;;;;;6.03;4.30;;;;;;;4.05;100.00;100623.37;1479363;88;21470;-77
2023/11/22 09:17:53;;;;;;;6.77;4.60;;;;;;;4.12;100.00;100625.14;1477865;88;21492;-77
2023/11/22 09:20:20;;;;;;;6.13;3.70;;;;;;;4.14;100.00;100628.95;1485352;88;22069;-77
2023/11/22 09:22:50;;;;;;;6.70;3.80;;;;;;;4.04;100.00;100617.78;1481215;88;21382;-76
2023/11/22 09:25:30;;;;;;;7.43;4.00;;;;;;;4.35;100.00;100630.16;1456831;88;21434;-77
2023/11/22 09:28:01;;;;;;;8.13;5.33;;;;;;;4.94;100.00;100639.66;1484766;88;21493;-78
2023/11/22 09:30:42;;;;;;;5.60;4.10;;;;;;;5.02;100.00;100640.44;1481888;88;21544;-77
2023/11/22 09:33:18;;;;;;;8.40;4.28;;;;;;;5.54;100.00;100639.86;1469537;88;21574;-78
2023/11/22 09:35:47;;;;;;;7.37;4.53;;;;;;;5.62;100.00;100639.67;1483518;88;23068;-78
2023/11/22 09:38:15;;;;;;;7.07;4.90;;;;;;;5.76;100.00;100646.56;1477920;88;22351;-79
2023/11/22 09:40:47;;;;;;;5.73;4.60;;;;;;;5.96;100.00;100645.14;1481641;88;21567;-78
2023/11/22 09:43:17;;;;;;;5.70;4.50;;;;;;;5.56;100.00;100640.59;1476634;88;21536;-78
2023/11/22 09:45:48;;;;;;;6.57;4.40;;;;;;;6.30;100.00;100645.25;1476289;88;22462;-77
2023/11/22 09:48:22;;;;;;;5.90;4.20;;;;;;;6.51;100.00;100643.65;1485757;88;21462;-78
2023/11/22 09:51:15;;;;;;;6.53;4.27;;;;;;;6.31;100.00;100653.03;1487214;88;21538;-77
2023/11/22 09:53:47;;;;;;;4.57;3.43;;;;;;;5.98;100.00;100646.33;1488378;88;21670;-78
2023/11/22 09:56:14;;;;;;;7.37;4.77;;;;;;;5.56;100.00;100658.50;1474762;88;21485;-78
2023/11/22 09:58:47;;;;;;;7.70;5.13;;;;;;;5.77;100.00;100660.52;1481867;88;21493;-77
2023/11/22 10:01:14;;;;;;;5.60;3.77;;;;;;;5.80;100.00;100659.82;1481399;88;21669;-76
2023/11/22 10:03:41;;;;;;;7.67;4.97;;;;;;;5.56;100.00;100658.98;1482952;88;21660;-78
2023/11/22 10:06:08;;;;;;;4.13;3.63;;;;;;;5.82;100.00;100671.55;1457280;88;21882;-77
2023/11/22 10:08:35;;;;;;;6.93;4.17;;;;;;;5.64;100.00;100664.52;1475312;88;21574;-77
2023/11/22 10:11:04;;;;;;;7.53;4.83;;;;;;;5.36;100.00;100670.41;1483795;88;22008;-76
2023/11/22 10:13:30;;;;;;;6.63;4.77;;;;;;;5.99;100.00;100679.06;1471585;88;22445;-77
2023/11/22 10:15:58;;;;;;;6.90;4.83;;;;;;;5.35;100.00;100675.30;1475956;88;21513;-79
2023/11/22 10:18:26;;;;;;;6.53;4.60;;;;;;;5.73;100.00;100681.41;1457819;89;21515;-77
2023/11/22 10:20:52;;;;;;;8.70;4.00;;;;;;;5.67;100.00;100678.74;1445318;89;21827;-76
2023/11/22 10:23:24;;;;;;;8.67;4.33;;;;;;;5.49;100.00;100690.53;1461744;89;21493;-77
2023/11/22 10:25:53;;;;;;;6.20;5.00;;;;;;;5.61;100.00;100672.59;1456372;89;21522;-78
2023/11/22 10:28:21;;;;;;;5.43;4.23;;;;;;;5.67;100.00;100677.43;1492094;89;21605;-78
2023/11/22 10:30:49;;;;;;;7.00;5.47;;;;;;;5.19;100.00;100680.77;1454431;88;21434;-79
2023/11/22 10:33:17;;;;;;;5.67;4.57;;;;;;;5.45;100.00;100674.65;1463240;89;22469;-78
2023/11/22 10:35:52;;;;;;;7.90;5.10;;;;;;;5.42;100.00;100677.84;1460987;88;21857;-79
2023/11/22 10:38:20;;;;;;;5.63;4.43;;;;;;;5.82;100.00;100684.20;1457153;88;21611;-78
2023/11/22 10:40:48;;;;;;;5.73;4.30;;;;;;;5.84;100.00;100681.00;1440479;89;21479;-78
2023/11/22 10:43:16;;;;;;;5.67;4.67;;;;;;;5.96;100.00;100688.48;1455824;88;22485;-78
2023/11/22 10:45:48;;;;;;;7.70;5.17;;;;;;;5.62;100.00;100676.44;1455607;89;21611;-78
2023/11/22 10:48:19;;;;;;;6.58;4.85;;;;;;;4.98;100.00;100685.73;1456690;89;21515;-78
2023/11/22 10:50:48;;;;;;;5.80;4.50;;;;;;;4.91;100.00;100696.73;1461178;89;21398;-77
2023/11/22 10:53:20;;;;;;;5.73;4.37;;;;;;;4.71;100.00;100695.46;1452844;88;22329;-77
2023/11/22 10:55:48;;;;;;;5.73;4.53;;;;;;;4.75;100.00;100712.69;1459491;89;21427;-77
2023/11/22 10:58:16;;;;;;;7.90;5.33;;;;;;;4.72;100.00;100712.89;1460305;88;21529;-76
2023/11/22 11:00:43;;;;;;;8.57;4.70;;;;;;;4.67;100.00;100726.30;1459755;88;21612;-78
2023/11/22 11:03:20;;;;;;;8.10;6.17;;;;;;;4.67;100.00;100721.53;1459445;89;21478;-78
2023/11/22 11:05:59;;;;;;;8.03;6.10;;;;;;;4.91;100.00;100726.42;1459979;89;21531;-78
2023/11/22 11:08:28;;;;;;;7.13;5.33;;;;;;;4.90;100.00;100726.06;1465474;89;21427;-78
2023/11/22 11:10:56;;;;;;;7.93;5.30;;;;;;;4.65;100.00;100727.34;1453100;89;21582;-77
2023/11/22 11:13:23;;;;;;;5.73;5.17;;;;;;;4.71;100.00;100746.59;1460996;89;21585;-77
2023/11/22 11:15:52;;;;;;;9.67;5.97;;;;;;;4.64;100.00;100745.33;1462405;89;22475;-77
2023/11/22 11:18:19;;;;;;;8.43;5.50;;;;;;;4.65;100.00;100741.76;1456614;88;21695;-77
2023/11/22 11:20:59;;;;;;;8.10;6.13;;;;;;;4.77;100.00;100744.86;1448051;89;21530;-78